createdAt,value
2022-12-19T00:01:16.125Z,-2.89
2022-12-19T00:04:19.897Z,-2.81
2022-12-19T00:07:22.950Z,-2.78
2022-12-19T00:10:24.585Z,-2.73
2022-12-19T00:13:27.070Z,-2.77
2022-12-19T00:16:31.030Z,-2.79
2022-12-19T00:19:33.041Z,-2.78
2022-12-19T00:22:36.111Z,-2.82
2022-12-19T00:25:37.765Z,-2.76
2022-12-19T00:28:43.400Z,-2.72
2022-12-19T00:31:45.311Z,-2.69
2022-12-19T00:34:49.433Z,-2.68
2022-12-19T00:37:52.865Z,-2.64
2022-12-19T00:40:54.804Z,-2.58
2022-12-19T00:43:58.388Z,-2.71
2022-12-19T00:47:00.045Z,-2.63
2022-12-19T00:50:01.928Z,-2.63
2022-12-19T00:53:05.087Z,-2.71
2022-12-19T00:56:12.092Z,-2.62
2022-12-19T00:59:13.868Z,-2.62
2022-12-19T01:02:16.405Z,-2.79
2022-12-19T01:05:18.385Z,-2.87
2022-12-19T01:08:21.334Z,-2.87
2022-12-19T01:11:43.490Z,-2.93
2022-12-19T01:14:45.670Z,-2.91
2022-12-19T01:17:48.038Z,-2.85
2022-12-19T01:20:49.667Z,-2.90
2022-12-19T01:23:52.947Z,-2.93
2022-12-19T01:26:54.613Z,-2.97
2022-12-19T01:29:56.221Z,-2.89
2022-12-19T01:32:59.440Z,-2.92
2022-12-19T01:36:07.663Z,-2.87
2022-12-19T01:39:10.612Z,-2.75
2022-12-19T01:42:15.085Z,-2.76
2022-12-19T01:45:34.544Z,-2.64
2022-12-19T01:48:39.615Z,-2.48
2022-12-19T01:51:44.800Z,-2.49
2022-12-19T01:54:48.270Z,-2.43
2022-12-19T01:57:52.352Z,-2.45
2022-12-19T02:00:54.280Z,-2.39
2022-12-19T02:03:57.823Z,-2.38
2022-12-19T02:07:14.986Z,-2.32
2022-12-19T02:10:19.890Z,-2.29
2022-12-19T02:13:23.472Z,-2.35
2022-12-19T02:16:34.755Z,-2.29
2022-12-19T02:20:07.995Z,-2.34
2022-12-19T02:23:30.715Z,-2.34
2022-12-19T02:26:49.451Z,-2.32
2022-12-19T02:30:07.015Z,-2.19
2022-12-19T02:33:21.337Z,-2.20
2022-12-19T02:36:29.314Z,-2.17
2022-12-19T02:39:45.415Z,-2.19
2022-12-19T02:42:50.545Z,-2.13
2022-12-19T02:45:53.961Z,-2.26
2022-12-19T02:48:58.699Z,-2.21
2022-12-19T02:52:09.650Z,-2.22
2022-12-19T02:55:15.486Z,-2.18
2022-12-19T02:58:43.568Z,-2.19
2022-12-19T03:01:52.602Z,-2.17
2022-12-19T03:04:59.945Z,-2.16
2022-12-19T03:08:08.892Z,-2.16
2022-12-19T03:11:14.845Z,-2.02
2022-12-19T03:14:22.534Z,-2.01
2022-12-19T03:17:28.728Z,-2.01
2022-12-19T03:20:39.461Z,-1.97
2022-12-19T03:23:41.704Z,-1.89
2022-12-19T03:26:50.290Z,-1.89
2022-12-19T03:29:55.705Z,-1.93
2022-12-19T03:32:57.657Z,-1.92
2022-12-19T03:36:06.332Z,-1.92
2022-12-19T03:39:12.082Z,-1.88
2022-12-19T03:42:35.087Z,-1.84
2022-12-19T03:45:45.607Z,-1.80
2022-12-19T03:48:49.175Z,-1.79
2022-12-19T03:51:59.924Z,-1.76
2022-12-19T03:55:06.266Z,-1.71
2022-12-19T03:58:10.770Z,-1.70
2022-12-19T04:01:14.331Z,-1.67
2022-12-19T04:04:16.884Z,-1.73
2022-12-19T04:07:21.233Z,-1.66
2022-12-19T04:10:26.390Z,-1.72
2022-12-19T04:13:37.121Z,-1.68
2022-12-19T04:16:44.776Z,-1.66
2022-12-19T04:19:53.763Z,-1.63
2022-12-19T04:23:01.297Z,-1.63
2022-12-19T04:26:05.657Z,-1.56
2022-12-19T04:29:08.962Z,-1.53
2022-12-19T04:32:11.917Z,-1.56
2022-12-19T04:35:14.489Z,-1.51
2022-12-19T04:38:17.681Z,-1.57
2022-12-19T04:41:19.345Z,-1.53
2022-12-19T04:44:21.590Z,-1.49
2022-12-19T04:47:23.277Z,-1.42
2022-12-19T04:50:24.913Z,-1.40
2022-12-19T04:53:27.911Z,-1.42
2022-12-19T04:56:29.554Z,-1.40
2022-12-19T04:59:31.656Z,-1.40
2022-12-19T05:02:33.446Z,-1.36
2022-12-19T05:05:35.181Z,-1.34
2022-12-19T05:08:39.833Z,-1.32
2022-12-19T05:11:41.507Z,-1.31
2022-12-19T05:14:43.163Z,-1.22
2022-12-19T05:17:44.790Z,-1.28
2022-12-19T05:20:48.565Z,-1.21
2022-12-19T05:23:51.619Z,-1.09
2022-12-19T05:26:53.352Z,-0.99
2022-12-19T05:29:54.997Z,-1.05
2022-12-19T05:32:56.658Z,-1.01
2022-12-19T05:35:58.340Z,-1.01
2022-12-19T05:39:01.349Z,-0.96
2022-12-19T05:42:03.063Z,-0.93
2022-12-19T05:45:05.291Z,-0.93
2022-12-19T05:48:07.008Z,-0.89
2022-12-19T05:51:11.204Z,-0.89
2022-12-19T05:54:14.804Z,-0.93
2022-12-19T05:57:16.500Z,-0.88
2022-12-19T06:00:18.586Z,-0.84
2022-12-19T06:03:20.411Z,-0.84
2022-12-19T06:06:24.496Z,-0.93
2022-12-19T06:09:27.571Z,-0.77
2022-12-19T06:12:29.270Z,-0.69
2022-12-19T06:15:31.045Z,-0.64
2022-12-19T06:18:33.165Z,-0.61
2022-12-19T06:21:34.844Z,-0.74
2022-12-19T06:24:38.062Z,-0.72
2022-12-19T06:27:39.730Z,-0.65
2022-12-19T06:30:41.596Z,-0.63
2022-12-19T06:33:43.654Z,-0.66
2022-12-19T06:36:46.016Z,-0.56
2022-12-19T07:57:18.699Z,0.22
2022-12-19T08:00:21.470Z,0.34
2022-12-19T08:36:38.500Z,1.25
2022-12-19T08:39:40.267Z,1.39
2022-12-19T08:42:41.942Z,1.41
2022-12-19T08:45:43.723Z,1.39
2022-12-19T08:48:45.983Z,1.43
2022-12-19T08:51:49.667Z,1.50
2022-12-19T08:54:51.469Z,1.65
2022-12-19T08:57:53.267Z,1.66
2022-12-19T09:01:05.000Z,1.74
2022-12-19T09:05:30.889Z,1.83
2022-12-19T09:07:30.915Z,1.96
2022-12-19T09:10:35.820Z,2.01
2022-12-19T09:13:39.553Z,2.01
2022-12-19T09:16:41.541Z,2.07
2022-12-19T09:19:45.917Z,1.99
2022-12-19T09:22:52.365Z,1.96
2022-12-19T09:25:54.793Z,1.90
2022-12-19T09:28:56.864Z,2.02
2022-12-19T09:31:59.042Z,2.13
2022-12-19T09:35:00.861Z,2.19
2022-12-19T09:38:04.733Z,2.10
2022-12-19T09:41:29.224Z,2.31
2022-12-19T09:44:50.341Z,2.34
2022-12-19T09:47:56.097Z,2.42
2022-12-19T09:51:10.046Z,2.58
2022-12-19T09:54:19.240Z,2.65
2022-12-19T09:57:26.025Z,2.76
2022-12-19T10:00:33.961Z,2.83
2022-12-19T10:03:40.912Z,2.76
2022-12-19T10:07:15.826Z,2.91
2022-12-19T10:12:33.237Z,2.95
2022-12-19T10:13:44.043Z,3.17
2022-12-19T10:17:23.201Z,3.20
2022-12-19T10:20:28.241Z,3.43
2022-12-19T10:24:03.602Z,3.42
2022-12-19T10:27:16.697Z,3.41
2022-12-19T10:30:21.136Z,3.35
2022-12-19T10:33:29.330Z,3.45
2022-12-19T10:37:12.811Z,3.53
2022-12-19T10:40:15.657Z,3.55
2022-12-19T10:43:44.368Z,3.59
2022-12-19T10:46:48.013Z,3.57
2022-12-19T10:49:49.956Z,3.52
2022-12-19T10:52:55.119Z,3.56
2022-12-19T10:56:01.708Z,3.57
2022-12-19T10:59:16.404Z,3.48
2022-12-19T11:02:29.365Z,3.40
2022-12-19T11:05:41.783Z,3.30
2022-12-19T11:08:43.745Z,3.45
2022-12-19T11:13:57.145Z,3.48
2022-12-19T11:18:54.653Z,3.46
2022-12-19T11:26:42.527Z,3.54
2022-12-19T11:29:33.806Z,3.60
2022-12-19T11:30:06.369Z,3.55
2022-12-19T11:30:48.858Z,3.64
2022-12-19T11:32:48.862Z,3.67
2022-12-19T11:35:52.892Z,3.64
2022-12-19T11:38:55.112Z,3.63
2022-12-19T11:42:12.150Z,3.63
2022-12-19T11:45:20.697Z,3.68
2022-12-19T11:48:34.669Z,3.76
2022-12-19T11:51:44.565Z,3.77
2022-12-19T11:54:55.694Z,3.87
2022-12-19T11:57:58.092Z,3.90
2022-12-19T12:01:09.237Z,3.76
2022-12-19T12:04:35.015Z,4.00
2022-12-19T12:09:02.796Z,4.11
2022-12-19T12:15:52.235Z,4.12
2022-12-19T12:23:02.049Z,4.15
2022-12-19T12:31:01.147Z,4.15
2022-12-19T12:31:18.626Z,4.23
2022-12-19T12:31:38.740Z,4.31
2022-12-19T12:31:52.739Z,4.20
2022-12-19T12:35:47.068Z,4.44
2022-12-19T12:39:24.274Z,4.17
2022-12-19T12:42:48.443Z,4.38
2022-12-19T12:45:50.291Z,4.46
2022-12-19T12:48:57.403Z,4.49
2022-12-19T12:52:01.617Z,4.59
2022-12-19T12:55:13.115Z,4.54
2022-12-19T12:58:43.062Z,4.65
2022-12-19T13:01:50.877Z,4.61
2022-12-19T13:04:58.081Z,4.73
2022-12-19T13:08:00.015Z,4.81
2022-12-19T13:11:06.568Z,4.79
2022-12-19T13:14:43.319Z,4.77
2022-12-19T13:18:07.804Z,4.78
2022-12-19T13:21:09.621Z,4.81
2022-12-19T13:24:21.338Z,4.78
2022-12-19T13:27:39.344Z,4.77
2022-12-19T13:31:22.814Z,4.79
2022-12-19T13:34:35.429Z,4.70
2022-12-19T13:39:48.930Z,4.67
2022-12-19T13:41:24.636Z,4.47
2022-12-19T13:44:26.963Z,4.48
2022-12-19T13:47:35.087Z,4.35
2022-12-19T13:50:40.200Z,4.34
2022-12-19T13:53:43.062Z,4.28
2022-12-19T13:56:44.799Z,4.19
2022-12-19T14:00:00.495Z,4.10
2022-12-19T14:03:11.881Z,4.30
2022-12-19T14:06:20.477Z,4.17
2022-12-19T14:11:28.399Z,4.14
2022-12-19T14:13:52.542Z,4.05
2022-12-19T14:16:35.018Z,4.06
2022-12-19T14:19:50.398Z,3.97
2022-12-19T14:22:56.693Z,3.95
2022-12-19T14:28:18.862Z,3.90
2022-12-19T14:29:52.182Z,3.71
2022-12-19T14:33:39.914Z,3.43
2022-12-19T14:36:18.603Z,3.32
2022-12-19T14:39:29.636Z,3.26
2022-12-19T14:43:58.048Z,3.01
2022-12-19T14:52:25.239Z,3.01
2022-12-19T14:54:07.517Z,2.93
2022-12-19T14:54:40.479Z,2.87
2022-12-19T14:56:59.048Z,2.98
2022-12-19T15:01:09.198Z,2.94
2022-12-19T15:04:48.045Z,2.93
2022-12-19T15:07:17.719Z,2.84
2022-12-19T15:11:05.356Z,2.55
2022-12-19T15:14:56.480Z,2.42
2022-12-19T15:17:21.591Z,2.30
2022-12-19T15:20:23.430Z,2.05
2022-12-19T15:23:25.804Z,1.89
2022-12-19T15:26:30.659Z,1.91
2022-12-19T15:29:34.044Z,1.84
2022-12-19T15:32:35.683Z,1.63
2022-12-19T15:35:38.570Z,1.63
2022-12-19T15:38:40.297Z,1.48
2022-12-19T15:41:45.102Z,1.52
2022-12-19T15:44:48.324Z,1.34
2022-12-19T15:47:50.286Z,1.34
2022-12-19T15:50:51.981Z,1.25
2022-12-19T15:53:57.015Z,1.25
2022-12-19T15:57:19.653Z,1.26
2022-12-19T16:00:23.886Z,1.34
2022-12-19T16:03:26.880Z,1.26
2022-12-19T16:06:29.161Z,1.15
2022-12-19T16:23:54.545Z,1.19
2022-12-19T16:26:58.370Z,1.32
2022-12-19T16:30:18.687Z,1.22
2022-12-19T16:33:23.315Z,1.31
2022-12-19T16:36:25.050Z,1.23
2022-12-19T16:39:28.983Z,1.33
2022-12-19T16:42:32.049Z,1.37
2022-12-19T16:45:34.436Z,1.21
2022-12-19T16:48:36.242Z,1.15
2022-12-19T16:51:38.966Z,1.21
2022-12-19T16:54:42.230Z,1.16
2022-12-19T16:57:46.432Z,1.08
2022-12-19T17:00:49.329Z,1.21
2022-12-19T17:03:51.109Z,1.33
2022-12-19T17:06:53.749Z,1.26
2022-12-19T17:09:56.891Z,1.38
2022-12-19T17:13:01.731Z,1.50
2022-12-19T17:16:04.574Z,1.74
2022-12-19T17:19:06.343Z,1.65
2022-12-19T17:22:11.918Z,1.62
2022-12-19T17:25:19.228Z,1.51
2022-12-19T17:28:21.033Z,1.42
2022-12-19T17:31:25.798Z,1.32
2022-12-19T17:34:30.669Z,1.38
2022-12-19T17:37:32.516Z,1.34
2022-12-19T17:40:35.639Z,1.34
2022-12-19T17:43:37.716Z,1.32
2022-12-19T17:46:39.714Z,1.27
2022-12-19T17:49:43.710Z,1.25
2022-12-19T17:52:45.394Z,1.25
2022-12-19T17:55:49.058Z,1.25
2022-12-19T17:58:50.814Z,1.21
2022-12-19T18:01:52.813Z,1.11
2022-12-19T18:04:54.779Z,1.19
2022-12-19T18:07:56.543Z,1.15
2022-12-19T18:11:02.039Z,1.12
2022-12-19T18:14:03.778Z,1.10
2022-12-19T18:17:05.700Z,1.12
2022-12-19T18:20:23.741Z,1.08
2022-12-19T18:23:28.314Z,1.07
2022-12-19T18:26:31.949Z,1.13
2022-12-19T18:29:33.873Z,1.05
2022-12-19T18:32:35.619Z,1.00
2022-12-19T18:35:40.587Z,0.87
2022-12-19T18:38:42.381Z,0.91
2022-12-19T18:41:45.423Z,0.95
2022-12-19T18:44:47.333Z,0.90
2022-12-19T18:47:54.516Z,0.92
2022-12-19T18:50:57.777Z,1.00
2022-12-19T18:54:00.069Z,1.17
2022-12-19T18:57:03.212Z,1.28
2022-12-19T19:00:08.805Z,1.31
2022-12-19T19:03:16.247Z,1.27
2022-12-19T19:06:20.483Z,1.29
2022-12-19T19:09:22.603Z,1.39
2022-12-19T19:12:28.549Z,1.30
2022-12-19T19:15:33.237Z,1.36
2022-12-19T19:18:37.742Z,1.36
2022-12-19T19:21:39.721Z,1.28
2022-12-19T19:24:41.467Z,1.21
2022-12-19T19:27:44.885Z,1.13
2022-12-19T19:30:46.882Z,1.06
2022-12-19T19:33:52.585Z,1.13
2022-12-19T19:36:57.142Z,1.07
2022-12-19T19:39:58.926Z,1.17
2022-12-19T19:43:02.168Z,1.40
2022-12-19T19:46:04.220Z,1.41
2022-12-19T19:49:05.934Z,1.44
2022-12-19T19:52:07.724Z,1.41
2022-12-19T19:55:09.990Z,1.43
2022-12-19T19:58:13.052Z,1.38
2022-12-19T20:01:15.310Z,1.44
2022-12-19T20:04:17.145Z,1.57
2022-12-19T20:07:19.508Z,1.54
2022-12-19T20:10:21.255Z,1.39
2022-12-19T20:13:24.848Z,1.62
2022-12-19T20:16:26.592Z,1.50
2022-12-19T20:19:28.425Z,1.42
2022-12-19T20:22:30.315Z,1.26
2022-12-19T20:25:32.396Z,1.19
2022-12-19T20:28:35.588Z,1.33
2022-12-19T20:31:38.727Z,1.44
2022-12-19T20:34:40.507Z,1.46
2022-12-19T20:37:42.456Z,1.28
2022-12-19T20:40:45.456Z,1.25
2022-12-19T20:43:49.351Z,1.22
2022-12-19T20:46:51.323Z,1.30
2022-12-19T20:49:53.227Z,1.34
2022-12-19T20:52:55.306Z,1.35
2022-12-19T20:55:59.134Z,1.32
2022-12-19T20:59:02.964Z,1.35
2022-12-19T21:02:04.931Z,1.67
2022-12-19T21:05:07.471Z,2.37
2022-12-19T21:08:09.308Z,2.66
2022-12-19T21:11:11.990Z,2.78
2022-12-19T21:14:15.280Z,3.37
2022-12-19T21:17:17.227Z,4.08
2022-12-19T21:20:18.907Z,4.36
2022-12-19T21:23:21.018Z,4.72
2022-12-19T21:26:24.964Z,4.71
2022-12-19T21:29:28.697Z,4.49
2022-12-19T21:32:30.452Z,4.12
2022-12-19T21:35:33.831Z,4.17
2022-12-19T21:38:37.035Z,4.27
2022-12-19T21:41:38.822Z,4.16
2022-12-19T21:44:41.868Z,4.22
2022-12-19T21:47:43.773Z,4.35
2022-12-19T21:50:45.495Z,4.14
2022-12-19T21:53:47.421Z,4.35
2022-12-19T21:56:49.289Z,4.45
2022-12-19T21:59:52.407Z,4.72
2022-12-19T22:03:13.199Z,4.95
2022-12-19T22:06:21.021Z,5.08
2022-12-19T22:09:27.375Z,4.74
2022-12-19T22:12:29.109Z,4.67
2022-12-19T22:15:32.201Z,4.92
2022-12-19T22:18:35.265Z,4.87
2022-12-19T22:21:37.137Z,4.83
2022-12-19T22:24:38.900Z,4.92
2022-12-19T22:27:40.860Z,4.65
2022-12-19T22:30:43.971Z,4.52
2022-12-19T22:33:46.479Z,4.25
2022-12-19T22:36:48.990Z,4.03
2022-12-19T22:39:50.689Z,4.04
2022-12-19T22:42:52.447Z,3.87
2022-12-19T22:45:55.609Z,3.78
2022-12-19T22:48:59.369Z,3.64
2022-12-19T22:52:01.027Z,3.44
2022-12-19T22:55:02.966Z,3.23
2022-12-19T22:58:04.815Z,3.26
2022-12-19T23:01:14.909Z,3.16
2022-12-19T23:04:17.614Z,3.11
2022-12-19T23:07:19.811Z,3.12
2022-12-19T23:10:21.669Z,3.05
2022-12-19T23:13:24.826Z,3.06
2022-12-19T23:16:28.130Z,3.08
2022-12-19T23:19:30.204Z,3.06
2022-12-19T23:22:31.907Z,3.10
2022-12-19T23:25:37.881Z,3.40
2022-12-19T23:28:39.830Z,3.39
2022-12-19T23:31:45.482Z,3.52
2022-12-19T23:34:47.206Z,3.44
2022-12-19T23:37:48.968Z,3.55
2022-12-19T23:40:51.007Z,3.63
2022-12-19T23:43:52.712Z,3.59
2022-12-19T23:47:02.656Z,3.70
2022-12-19T23:50:06.198Z,3.60
2022-12-19T23:53:07.992Z,3.69
2022-12-19T23:56:13.399Z,3.59
2022-12-19T23:59:15.264Z,3.66
